sensor_id;sensor_type;location;lat;lon;timestamp;pressure;altitude;pressure_sealevel;temperature;humidity
44349;BME280;30068;50.986;4.564;2023-02-17T00:00:04;102173.75;;;16.91;62.59
44349;BME280;30068;50.986;4.564;2023-02-17T00:02:30;102172.91;;;16.91;62.65
44349;BME280;30068;50.986;4.564;2023-02-17T00:04:55;102173.75;;;16.91;62.28
44349;BME280;30068;50.986;4.564;2023-02-17T00:07:20;102169.34;;;16.90;62.50
44349;BME280;30068;50.986;4.564;2023-02-17T00:09:45;102173.16;;;16.88;62.58
44349;BME280;30068;50.986;4.564;2023-02-17T00:12:10;102168.91;;;16.85;62.47
44349;BME280;30068;50.986;4.564;2023-02-17T00:14:37;102167.63;;;16.89;62.47
44349;BME280;30068;50.986;4.564;2023-02-17T00:17:03;102172.06;;;16.90;62.44
44349;BME280;30068;50.986;4.564;2023-02-17T00:19:28;102173.03;;;16.89;62.50
44349;BME280;30068;50.986;4.564;2023-02-17T00:21:54;102182.84;;;16.90;62.37
44349;BME280;30068;50.986;4.564;2023-02-17T00:24:20;102185.66;;;16.89;62.20
44349;BME280;30068;50.986;4.564;2023-02-17T00:26:46;102180.69;;;16.84;62.42
44349;BME280;30068;50.986;4.564;2023-02-17T00:29:11;102181.38;;;16.86;62.41
44349;BME280;30068;50.986;4.564;2023-02-17T00:31:37;102174.03;;;16.88;62.26
44349;BME280;30068;50.986;4.564;2023-02-17T00:34:02;102186.78;;;16.86;62.53
44349;BME280;30068;50.986;4.564;2023-02-17T00:36:27;102175.72;;;16.89;62.48
44349;BME280;30068;50.986;4.564;2023-02-17T00:38:54;102174.56;;;16.82;62.36
44349;BME280;30068;50.986;4.564;2023-02-17T00:41:19;102159.25;;;16.83;62.38
44349;BME280;30068;50.986;4.564;2023-02-17T00:43:45;102149.97;;;16.76;62.67
44349;BME280;30068;50.986;4.564;2023-02-17T00:46:10;102144.31;;;16.79;62.47
44349;BME280;30068;50.986;4.564;2023-02-17T00:48:36;102136.50;;;16.76;62.61
44349;BME280;30068;50.986;4.564;2023-02-17T00:51:01;102135.97;;;16.82;62.51
44349;BME280;30068;50.986;4.564;2023-02-17T00:53:26;102134.38;;;16.79;62.61
44349;BME280;30068;50.986;4.564;2023-02-17T00:55:52;102130.00;;;16.78;62.59
44349;BME280;30068;50.986;4.564;2023-02-17T00:58:17;102129.28;;;16.76;62.40
44349;BME280;30068;50.986;4.564;2023-02-17T01:00:42;102130.50;;;16.72;62.62
44349;BME280;30068;50.986;4.564;2023-02-17T01:03:08;102131.53;;;16.71;62.81
44349;BME280;30068;50.986;4.564;2023-02-17T01:05:33;102127.56;;;16.75;62.52
44349;BME280;30068;50.986;4.564;2023-02-17T01:07:58;102121.44;;;16.73;62.70
44349;BME280;30068;50.986;4.564;2023-02-17T01:10:23;102129.28;;;16.76;62.51
44349;BME280;30068;50.986;4.564;2023-02-17T01:12:49;102122.16;;;16.75;62.49
44349;BME280;30068;50.986;4.564;2023-02-17T01:15:14;102134.25;;;16.81;62.31
44349;BME280;30068;50.986;4.564;2023-02-17T01:17:39;102132.22;;;16.73;62.54
44349;BME280;30068;50.986;4.564;2023-02-17T01:20:05;102128.41;;;16.76;62.56
44349;BME280;30068;50.986;4.564;2023-02-17T01:22:30;102117.19;;;16.71;62.48
44349;BME280;30068;50.986;4.564;2023-02-17T01:24:55;102115.91;;;16.75;62.16
44349;BME280;30068;50.986;4.564;2023-02-17T01:27:21;102117.44;;;16.68;62.60
44349;BME280;30068;50.986;4.564;2023-02-17T01:29:46;102124.56;;;16.69;62.38
44349;BME280;30068;50.986;4.564;2023-02-17T01:32:11;102117.75;;;16.74;62.45
44349;BME280;30068;50.986;4.564;2023-02-17T01:34:37;102133.75;;;16.66;62.55
44349;BME280;30068;50.986;4.564;2023-02-17T01:37:02;102128.22;;;16.68;62.28
44349;BME280;30068;50.986;4.564;2023-02-17T01:39:27;102118.31;;;16.68;62.37
44349;BME280;30068;50.986;4.564;2023-02-17T01:41:52;102123.81;;;16.67;62.51
44349;BME280;30068;50.986;4.564;2023-02-17T01:44:19;102125.66;;;16.66;62.33
44349;BME280;30068;50.986;4.564;2023-02-17T01:46:46;102139.41;;;16.63;62.46
44349;BME280;30068;50.986;4.564;2023-02-17T01:49:14;102143.81;;;16.64;62.35
44349;BME280;30068;50.986;4.564;2023-02-17T01:51:41;102125.66;;;16.66;62.21
44349;BME280;30068;50.986;4.564;2023-02-17T01:54:14;102120.56;;;16.63;62.35
44349;BME280;30068;50.986;4.564;2023-02-17T01:56:42;102125.94;;;16.63;62.52
44349;BME280;30068;50.986;4.564;2023-02-17T01:59:14;102119.16;;;16.69;62.04
44349;BME280;30068;50.986;4.564;2023-02-17T02:01:41;102130.34;;;16.64;62.28
44349;BME280;30068;50.986;4.564;2023-02-17T02:04:06;102139.66;;;16.60;62.56
44349;BME280;30068;50.986;4.564;2023-02-17T02:06:32;102139.41;;;16.63;62.39
44349;BME280;30068;50.986;4.564;2023-02-17T02:09:03;102136.44;;;16.66;62.26
44349;BME280;30068;50.986;4.564;2023-02-17T02:11:29;102143.81;;;16.64;62.13
44349;BME280;30068;50.986;4.564;2023-02-17T02:13:54;102134.28;;;16.60;62.15
44349;BME280;30068;50.986;4.564;2023-02-17T02:16:27;102149.47;;;16.61;62.23
44349;BME280;30068;50.986;4.564;2023-02-17T02:35:08;102131.53;;;16.50;62.24
44349;BME280;30068;50.986;4.564;2023-02-17T02:37:42;102140.41;;;16.62;61.62
44349;BME280;30068;50.986;4.564;2023-02-17T02:40:09;102136.72;;;16.63;61.82
44349;BME280;30068;50.986;4.564;2023-02-17T02:42:35;102113.66;;;16.59;61.95
44349;BME280;30068;50.986;4.564;2023-02-17T02:45:01;102114.94;;;16.55;61.99
44349;BME280;30068;50.986;4.564;2023-02-17T02:47:46;102110.28;;;16.57;61.61
44349;BME280;30068;50.986;4.564;2023-02-17T02:50:13;102098.66;;;16.56;61.80
44349;BME280;30068;50.986;4.564;2023-02-17T02:52:47;102085.72;;;16.50;61.76
44349;BME280;30068;50.986;4.564;2023-02-17T02:55:22;102083.88;;;16.51;61.95
44349;BME280;30068;50.986;4.564;2023-02-17T03:02:54;102087.25;;;16.53;61.82
44349;BME280;30068;50.986;4.564;2023-02-17T03:05:27;102099.84;;;16.43;62.08
44349;BME280;30068;50.986;4.564;2023-02-17T03:07:58;102098.34;;;16.50;62.16
44349;BME280;30068;50.986;4.564;2023-02-17T03:10:25;102084.38;;;16.45;62.15
44349;BME280;30068;50.986;4.564;2023-02-17T03:12:50;102089.31;;;16.40;62.26
44349;BME280;30068;50.986;4.564;2023-02-17T03:15:27;102091.78;;;16.43;62.01
44349;BME280;30068;50.986;4.564;2023-02-17T03:17:57;102077.31;;;16.44;62.28
44349;BME280;30068;50.986;4.564;2023-02-17T03:20:22;102088.22;;;16.42;62.39
44349;BME280;30068;50.986;4.564;2023-02-17T03:22:47;102075.91;;;16.49;61.92
44349;BME280;30068;50.986;4.564;2023-02-17T03:25:13;102079.00;;;16.45;62.32
44349;BME280;30068;50.986;4.564;2023-02-17T03:27:38;102092.88;;;16.40;62.30
44349;BME280;30068;50.986;4.564;2023-02-17T03:30:04;102085.66;;;16.41;62.34
44349;BME280;30068;50.986;4.564;2023-02-17T03:32:29;102085.53;;;16.42;62.28
44349;BME280;30068;50.986;4.564;2023-02-17T03:34:54;102098.59;;;16.47;61.92
44349;BME280;30068;50.986;4.564;2023-02-17T03:37:19;102085.84;;;16.49;61.81
44349;BME280;30068;50.986;4.564;2023-02-17T03:39:45;102086.50;;;16.41;62.03
44349;BME280;30068;50.986;4.564;2023-02-17T03:42:11;102089.19;;;16.41;62.24
44349;BME280;30068;50.986;4.564;2023-02-17T03:44:36;102081.25;;;16.40;62.16
44349;BME280;30068;50.986;4.564;2023-02-17T03:47:02;102077.81;;;16.38;62.39
44349;BME280;30068;50.986;4.564;2023-02-17T03:49:27;102077.56;;;16.41;62.19
44349;BME280;30068;50.986;4.564;2023-02-17T03:51:52;102073.28;;;16.38;62.09
44349;BME280;30068;50.986;4.564;2023-02-17T03:54:17;102066.06;;;16.39;62.08
44349;BME280;30068;50.986;4.564;2023-02-17T03:56:42;102067.59;;;16.32;62.31
44349;BME280;30068;50.986;4.564;2023-02-17T03:59:08;102063.66;;;16.36;62.29
44349;BME280;30068;50.986;4.564;2023-02-17T04:01:33;102062.81;;;16.35;62.22
44349;BME280;30068;50.986;4.564;2023-02-17T04:03:58;102064.50;;;16.36;61.97
44349;BME280;30068;50.986;4.564;2023-02-17T04:06:23;102067.91;;;16.38;62.00
44349;BME280;30068;50.986;4.564;2023-02-17T04:08:49;102068.59;;;16.31;62.30
44349;BME280;30068;50.986;4.564;2023-02-17T04:11:16;102076.94;;;16.28;62.35
44349;BME280;30068;50.986;4.564;2023-02-17T04:13:41;102084.88;;;16.29;62.52
44349;BME280;30068;50.986;4.564;2023-02-17T04:16:07;102072.59;;;16.36;62.07
44349;BME280;30068;50.986;4.564;2023-02-17T04:18:33;102088.03;;;16.34;62.23
44349;BME280;30068;50.986;4.564;2023-02-17T04:20:58;102088.88;;;16.35;62.26
44349;BME280;30068;50.986;4.564;2023-02-17T04:23:23;102087.44;;;16.31;62.38
44349;BME280;30068;50.986;4.564;2023-02-17T04:25:49;102085.47;;;16.33;62.25
44349;BME280;30068;50.986;4.564;2023-02-17T04:28:14;102083.16;;;16.28;62.37
44349;BME280;30068;50.986;4.564;2023-02-17T04:30:43;102074.97;;;16.30;62.35
44349;BME280;30068;50.986;4.564;2023-02-17T04:33:09;102085.75;;;16.30;62.15
44349;BME280;30068;50.986;4.564;2023-02-17T04:35:35;102082.31;;;16.28;62.25
44349;BME280;30068;50.986;4.564;2023-02-17T04:38:00;102080.59;;;16.27;62.17
44349;BME280;30068;50.986;4.564;2023-02-17T04:40:25;102094.69;;;16.30;62.12
44349;BME280;30068;50.986;4.564;2023-02-17T04:42:51;102100.19;;;16.29;62.17
44349;BME280;30068;50.986;4.564;2023-02-17T04:45:16;102097.03;;;16.24;62.34
44349;BME280;30068;50.986;4.564;2023-02-17T04:47:41;102099.00;;;16.22;62.45
44349;BME280;30068;50.986;4.564;2023-02-17T04:50:08;102102.16;;;16.27;62.28
44349;BME280;30068;50.986;4.564;2023-02-17T04:52:34;102091.22;;;16.49;61.33
44349;BME280;30068;50.986;4.564;2023-02-17T04:54:59;102094.31;;;16.65;60.81
44349;BME280;30068;50.986;4.564;2023-02-17T04:57:24;102102.19;;;16.57;61.29
44349;BME280;30068;50.986;4.564;2023-02-17T04:59:49;102097.78;;;16.56;61.50
44349;BME280;30068;50.986;4.564;2023-02-17T05:02:15;102095.56;;;16.61;61.37
44349;BME280;30068;50.986;4.564;2023-02-17T05:04:41;102102.25;;;16.67;61.23
44349;BME280;30068;50.986;4.564;2023-02-17T05:07:06;102108.16;;;16.81;60.75
44349;BME280;30068;50.986;4.564;2023-02-17T05:09:31;102099.06;;;16.82;60.78
44349;BME280;30068;50.986;4.564;2023-02-17T05:11:56;102098.81;;;16.85;60.63
44349;BME280;30068;50.986;4.564;2023-02-17T05:14:22;102093.72;;;16.92;60.60
44349;BME280;30068;50.986;4.564;2023-02-17T05:16:47;102095.03;;;16.97;60.50
44349;BME280;30068;50.986;4.564;2023-02-17T05:19:12;102099.56;;;16.97;60.49
44349;BME280;30068;50.986;4.564;2023-02-17T05:21:37;102088.78;;;16.97;60.53
44349;BME280;30068;50.986;4.564;2023-02-17T05:24:03;102090.38;;;17.09;60.13
44349;BME280;30068;50.986;4.564;2023-02-17T05:26:28;102088.53;;;17.10;60.17
44349;BME280;30068;50.986;4.564;2023-02-17T05:28:53;102097.34;;;17.12;60.05
44349;BME280;30068;50.986;4.564;2023-02-17T05:31:18;102080.31;;;17.11;60.17
44349;BME280;30068;50.986;4.564;2023-02-17T05:33:44;102080.44;;;17.10;60.19
44349;BME280;30068;50.986;4.564;2023-02-17T05:36:09;102078.88;;;17.17;59.85
44349;BME280;30068;50.986;4.564;2023-02-17T05:38:35;102076.75;;;17.20;59.94
44349;BME280;30068;50.986;4.564;2023-02-17T05:41:01;102080.91;;;17.24;59.75
44349;BME280;30068;50.986;4.564;2023-02-17T05:43:26;102078.19;;;17.24;59.85
44349;BME280;30068;50.986;4.564;2023-02-17T05:45:51;102084.00;;;17.20;59.96
44349;BME280;30068;50.986;4.564;2023-02-17T05:48:17;102085.44;;;17.24;59.98
44349;BME280;30068;50.986;4.564;2023-02-17T05:50:42;102091.25;;;17.29;59.82
44349;BME280;30068;50.986;4.564;2023-02-17T05:53:07;102084.03;;;17.29;59.81
44349;BME280;30068;50.986;4.564;2023-02-17T05:55:32;102086.47;;;17.32;59.94
44349;BME280;30068;50.986;4.564;2023-02-17T05:57:58;102083.88;;;17.31;59.88
44349;BME280;30068;50.986;4.564;2023-02-17T06:00:23;102082.59;;;17.35;59.57
44349;BME280;30068;50.986;4.564;2023-02-17T06:02:48;102088.00;;;17.35;59.95
44349;BME280;30068;50.986;4.564;2023-02-17T06:05:14;102082.44;;;17.27;60.13
44349;BME280;30068;50.986;4.564;2023-02-17T06:07:39;102091.25;;;17.29;60.13
44349;BME280;30068;50.986;4.564;2023-02-17T06:10:05;102084.19;;;17.37;59.93
44349;BME280;30068;50.986;4.564;2023-02-17T06:12:30;102084.75;;;17.41;59.92
44349;BME280;30068;50.986;4.564;2023-02-17T06:14:55;102091.13;;;17.40;59.98
44349;BME280;30068;50.986;4.564;2023-02-17T06:17:20;102085.03;;;17.38;60.22
44349;BME280;30068;50.986;4.564;2023-02-17T06:19:46;102082.91;;;17.42;60.00
44349;BME280;30068;50.986;4.564;2023-02-17T06:22:11;102089.88;;;17.44;59.87
44349;BME280;30068;50.986;4.564;2023-02-17T06:24:36;102087.44;;;17.41;60.13
44349;BME280;30068;50.986;4.564;2023-02-17T06:27:01;102088.03;;;17.45;59.92
44349;BME280;30068;50.986;4.564;2023-02-17T06:29:27;102080.66;;;17.47;59.96
44349;BME280;30068;50.986;4.564;2023-02-17T06:31:52;102083.75;;;17.42;60.02
44349;BME280;30068;50.986;4.564;2023-02-17T06:34:17;102086.88;;;17.37;60.19
44349;BME280;30068;50.986;4.564;2023-02-17T06:36:43;102085.03;;;17.38;60.14
44349;BME280;30068;50.986;4.564;2023-02-17T06:39:08;102093.25;;;17.36;60.26
44349;BME280;30068;50.986;4.564;2023-02-17T06:41:33;102088.28;;;17.32;60.52
44349;BME280;30068;50.986;4.564;2023-02-17T06:43:58;102091.84;;;17.32;60.38
44349;BME280;30068;50.986;4.564;2023-02-17T06:46:24;102094.38;;;17.24;60.67
44349;BME280;30068;50.986;4.564;2023-02-17T06:48:49;102093.78;;;17.21;60.84
44349;BME280;30068;50.986;4.564;2023-02-17T06:51:14;102081.59;;;17.17;60.99
44349;BME280;30068;50.986;4.564;2023-02-17T06:53:39;102090.53;;;17.17;60.99
44349;BME280;30068;50.986;4.564;2023-02-17T06:56:04;102087.25;;;17.14;60.93
44349;BME280;30068;50.986;4.564;2023-02-17T06:58:30;102087.25;;;17.14;61.08
44349;BME280;30068;50.986;4.564;2023-02-17T07:00:56;102081.00;;;17.04;61.30
44349;BME280;30068;50.986;4.564;2023-02-17T07:03:21;102074.75;;;17.03;61.36
44349;BME280;30068;50.986;4.564;2023-02-17T07:05:47;102076.44;;;17.04;61.34
44349;BME280;30068;50.986;4.564;2023-02-17T07:08:12;102087.63;;;16.99;61.30
44349;BME280;30068;50.986;4.564;2023-02-17T07:10:37;102084.94;;;16.99;61.31
44349;BME280;30068;50.986;4.564;2023-02-17T07:13:04;102091.19;;;17.00;61.46
44349;BME280;30068;50.986;4.564;2023-02-17T07:15:29;102085.94;;;16.98;61.46
44349;BME280;30068;50.986;4.564;2023-02-17T07:17:54;102085.22;;;16.96;61.28
44349;BME280;30068;50.986;4.564;2023-02-17T07:20:19;102085.78;;;16.90;61.74
44349;BME280;30068;50.986;4.564;2023-02-17T07:22:44;102078.94;;;16.86;61.88
44349;BME280;30068;50.986;4.564;2023-02-17T07:25:10;102084.06;;;16.89;61.58
44349;BME280;30068;50.986;4.564;2023-02-17T07:27:35;102094.13;;;16.87;61.89
44349;BME280;30068;50.986;4.564;2023-02-17T07:30:01;102089.47;;;16.89;61.71
44349;BME280;30068;50.986;4.564;2023-02-17T07:32:26;102091.72;;;16.84;61.82
44349;BME280;30068;50.986;4.564;2023-02-17T07:34:51;102095.09;;;16.86;61.86
44349;BME280;30068;50.986;4.564;2023-02-17T07:37:16;102095.09;;;16.86;61.66
44349;BME280;30068;50.986;4.564;2023-02-17T07:39:44;102100.78;;;16.83;61.87
44349;BME280;30068;50.986;4.564;2023-02-17T07:42:09;102096.63;;;16.79;61.84
44349;BME280;30068;50.986;4.564;2023-02-17T07:44:34;102084.75;;;16.82;61.79
44349;BME280;30068;50.986;4.564;2023-02-17T07:46:59;102104.72;;;16.79;61.78
44349;BME280;30068;50.986;4.564;2023-02-17T07:49:25;102089.81;;;16.75;62.05
44349;BME280;30068;50.986;4.564;2023-02-17T07:51:50;102092.66;;;16.74;62.19
44349;BME280;30068;50.986;4.564;2023-02-17T07:54:15;102093.94;;;16.79;61.91
44349;BME280;30068;50.986;4.564;2023-02-17T07:56:41;102090.25;;;16.71;62.00
44349;BME280;30068;50.986;4.564;2023-02-17T07:59:09;102099.44;;;16.68;62.23
44349;BME280;30068;50.986;4.564;2023-02-17T08:01:35;102089.38;;;16.70;62.12
44349;BME280;30068;50.986;4.564;2023-02-17T08:04:00;102097.66;;;16.78;61.89
44349;BME280;30068;50.986;4.564;2023-02-17T08:06:26;102088.28;;;16.82;61.84
44349;BME280;30068;50.986;4.564;2023-02-17T08:08:51;102096.25;;;16.84;61.64
44349;BME280;30068;50.986;4.564;2023-02-17T08:11:35;102087.56;;;16.80;61.99
44349;BME280;30068;50.986;4.564;2023-02-17T08:14:20;102092.69;;;16.83;61.95
44349;BME280;30068;50.986;4.564;2023-02-17T08:16:45;102079.41;;;16.91;61.65
44349;BME280;30068;50.986;4.564;2023-02-17T08:19:11;102101.66;;;16.93;61.57
44349;BME280;30068;50.986;4.564;2023-02-17T08:21:36;102089.63;;;17.07;61.29
44349;BME280;30068;50.986;4.564;2023-02-17T08:24:01;102108.13;;;17.12;60.99
44349;BME280;30068;50.986;4.564;2023-02-17T08:26:26;102111.69;;;17.12;61.08
44349;BME280;30068;50.986;4.564;2023-02-17T08:28:51;102108.13;;;17.21;60.76
44349;BME280;30068;50.986;4.564;2023-02-17T08:31:18;102107.75;;;17.26;60.40
44349;BME280;30068;50.986;4.564;2023-02-17T08:33:43;102117.41;;;17.38;60.03
44349;BME280;30068;50.986;4.564;2023-02-17T08:36:08;102117.13;;;17.41;60.13
44349;BME280;30068;50.986;4.564;2023-02-17T08:38:34;102116.28;;;17.50;59.79
44349;BME280;30068;50.986;4.564;2023-02-17T08:40:59;102119.16;;;17.58;59.53
44349;BME280;30068;50.986;4.564;2023-02-17T08:43:24;102116.44;;;17.58;59.68
44349;BME280;30068;50.986;4.564;2023-02-17T08:45:49;102115.00;;;17.54;59.80
44349;BME280;30068;50.986;4.564;2023-02-17T08:48:15;102115.00;;;17.54;59.96
44349;BME280;30068;50.986;4.564;2023-02-17T08:50:40;102117.72;;;17.54;60.05
44349;BME280;30068;50.986;4.564;2023-02-17T08:53:05;102104.41;;;17.62;59.83
44349;BME280;30068;50.986;4.564;2023-02-17T08:55:30;102114.63;;;17.68;59.56
44349;BME280;30068;50.986;4.564;2023-02-17T08:57:56;102104.72;;;17.79;59.30
44349;BME280;30068;50.986;4.564;2023-02-17T09:00:21;102092.47;;;17.74;59.48
44349;BME280;30068;50.986;4.564;2023-02-17T09:02:46;102114.38;;;17.71;59.69
44349;BME280;30068;50.986;4.564;2023-02-17T09:05:12;102119.75;;;17.71;59.48
44349;BME280;30068;50.986;4.564;2023-02-17T09:07:38;102125.72;;;17.75;59.59
44349;BME280;30068;50.986;4.564;2023-02-17T09:10:04;102137.22;;;17.67;59.86
44349;BME280;30068;50.986;4.564;2023-02-17T09:12:30;102128.56;;;17.64;59.94
44349;BME280;30068;50.986;4.564;2023-02-17T09:14:55;102127.44;;;17.66;59.92
44349;BME280;30068;50.986;4.564;2023-02-17T09:17:20;102120.19;;;17.67;59.94
44349;BME280;30068;50.986;4.564;2023-02-17T09:19:45;102114.06;;;17.74;59.81
44349;BME280;30068;50.986;4.564;2023-02-17T09:22:12;102126.31;;;17.79;59.74
44349;BME280;30068;50.986;4.564;2023-02-17T09:24:38;102128.00;;;17.80;59.50
44349;BME280;30068;50.986;4.564;2023-02-17T09:27:04;102149.06;;;17.86;59.51
44349;BME280;30068;50.986;4.564;2023-02-17T09:29:29;102131.41;;;17.82;59.70
44349;BME280;30068;50.986;4.564;2023-02-17T09:31:55;102131.56;;;17.80;59.76
44349;BME280;30068;50.986;4.564;2023-02-17T09:34:20;102147.06;;;17.78;59.93
44349;BME280;30068;50.986;4.564;2023-02-17T09:36:45;102133.25;;;17.81;59.79
44349;BME280;30068;50.986;4.564;2023-02-17T09:39:10;102143.34;;;17.89;59.49
44349;BME280;30068;50.986;4.564;2023-02-17T09:41:40;102128.84;;;17.90;59.52
44349;BME280;30068;50.986;4.564;2023-02-17T09:44:24;102142.50;;;17.88;59.69
44349;BME280;30068;50.986;4.564;2023-02-17T09:47:01;102139.97;;;17.87;59.67
44349;BME280;30068;50.986;4.564;2023-02-17T09:49:37;102144.06;;;17.91;59.59
44349;BME280;30068;50.986;4.564;2023-02-17T09:52:11;102148.06;;;17.87;59.71
44349;BME280;30068;50.986;4.564;2023-02-17T09:54:50;102148.63;;;17.81;59.82
44349;BME280;30068;50.986;4.564;2023-02-17T09:57:19;102138.50;;;17.83;59.88
44349;BME280;30068;50.986;4.564;2023-02-17T10:00:28;102150.06;;;17.94;59.49
44349;BME280;30068;50.986;4.564;2023-02-17T10:02:43;102158.16;;;17.94;59.46
44349;BME280;30068;50.986;4.564;2023-02-17T10:05:10;102155.84;;;17.90;59.62
44349;BME280;30068;50.986;4.564;2023-02-17T10:07:40;102168.66;;;17.88;59.72
44349;BME280;30068;50.986;4.564;2023-02-17T10:10:13;102158.56;;;17.90;59.69
44349;BME280;30068;50.986;4.564;2023-02-17T10:12:43;102175.47;;;17.92;59.59
44349;BME280;30068;50.986;4.564;2023-02-17T10:15:13;102168.78;;;17.96;59.55
44349;BME280;30068;50.986;4.564;2023-02-17T10:17:46;102162.69;;;17.94;59.58
44349;BME280;30068;50.986;4.564;2023-02-17T10:20:15;102168.78;;;17.96;59.39
44349;BME280;30068;50.986;4.564;2023-02-17T10:22:44;102172.81;;;18.01;59.21
44349;BME280;30068;50.986;4.564;2023-02-17T10:25:12;102166.53;;;18.01;59.33
44349;BME280;30068;50.986;4.564;2023-02-17T10:27:45;102171.78;;;17.93;59.71
44349;BME280;30068;50.986;4.564;2023-02-17T10:35:51;102169.66;;;17.96;59.44
44349;BME280;30068;50.986;4.564;2023-02-17T10:40:55;102170.78;;;18.03;59.21
44349;BME280;30068;50.986;4.564;2023-02-17T10:43:24;102173.34;;;17.36;60.64
44349;BME280;30068;50.986;4.564;2023-02-17T10:45:51;102177.09;;;17.54;60.42
44349;BME280;30068;50.986;4.564;2023-02-17T10:48:18;102177.31;;;17.72;59.81
44349;BME280;30068;50.986;4.564;2023-02-17T10:50:45;102180.16;;;17.70;59.71
44349;BME280;30068;50.986;4.564;2023-02-17T10:53:17;102180.16;;;17.70;59.73
44349;BME280;30068;50.986;4.564;2023-02-17T10:58:32;102193.78;;;17.69;59.75
44349;BME280;30068;50.986;4.564;2023-02-17T11:00:59;102200.03;;;17.69;59.74
44349;BME280;30068;50.986;4.564;2023-02-17T11:03:27;102220.06;;;17.67;59.93
44349;BME280;30068;50.986;4.564;2023-02-17T11:05:57;102204.59;;;17.79;59.67
44349;BME280;30068;50.986;4.564;2023-02-17T11:10:47;102220.69;;;17.80;59.47
44349;BME280;30068;50.986;4.564;2023-02-17T11:13:37;102210.00;;;17.79;59.44
44349;BME280;30068;50.986;4.564;2023-02-17T11:16:04;102198.34;;;17.78;59.38
44349;BME280;30068;50.986;4.564;2023-02-17T11:18:33;102206.59;;;17.86;59.21
44349;BME280;30068;50.986;4.564;2023-02-17T11:21:09;102204.78;;;17.87;59.23
44349;BME280;30068;50.986;4.564;2023-02-17T11:23:39;102198.81;;;17.93;59.02
44349;BME280;30068;50.986;4.564;2023-02-17T11:26:15;102201.91;;;17.88;59.16
44349;BME280;30068;50.986;4.564;2023-02-17T11:28:41;102196.97;;;17.93;59.01
44349;BME280;30068;50.986;4.564;2023-02-17T11:31:06;102197.81;;;17.94;58.94
44349;BME280;30068;50.986;4.564;2023-02-17T11:33:37;102212.31;;;17.93;58.93
44349;BME280;30068;50.986;4.564;2023-02-17T11:36:03;102209.00;;;17.89;59.00
44349;BME280;30068;50.986;4.564;2023-02-17T11:41:03;102225.38;;;17.88;58.90
44349;BME280;30068;50.986;4.564;2023-02-17T11:43:30;102217.53;;;17.85;58.96
44349;BME280;30068;50.986;4.564;2023-02-17T11:56:26;102204.19;;;17.83;58.72
44349;BME280;30068;50.986;4.564;2023-02-17T12:04:24;102203.63;;;17.80;58.73
44349;BME280;30068;50.986;4.564;2023-02-17T12:06:53;102191.09;;;17.79;58.42
44349;BME280;30068;50.986;4.564;2023-02-17T12:11:54;102178.59;;;17.77;58.57
44349;BME280;30068;50.986;4.564;2023-02-17T12:17:22;102194.22;;;17.74;58.71
44349;BME280;30068;50.986;4.564;2023-02-17T12:22:23;102182.72;;;17.72;58.83
44349;BME280;30068;50.986;4.564;2023-02-17T12:24:55;102187.97;;;17.73;58.68
44349;BME280;30068;50.986;4.564;2023-02-17T12:30:02;102188.84;;;17.93;58.28
44349;BME280;30068;50.986;4.564;2023-02-17T12:32:51;102201.50;;;17.93;58.27
44349;BME280;30068;50.986;4.564;2023-02-17T12:35:36;102194.53;;;17.90;58.14
44349;BME280;30068;50.986;4.564;2023-02-17T12:38:09;102201.38;;;17.94;58.13
44349;BME280;30068;50.986;4.564;2023-02-17T12:40:40;102210.75;;;18.00;57.97
44349;BME280;30068;50.986;4.564;2023-02-17T12:43:17;102235.06;;;18.00;58.04
44349;BME280;30068;50.986;4.564;2023-02-17T12:45:48;102228.50;;;17.93;58.37
44349;BME280;30068;50.986;4.564;2023-02-17T12:48:17;102236.31;;;17.96;58.00
44349;BME280;30068;50.986;4.564;2023-02-17T12:53:33;102220.09;;;17.96;57.98
44349;BME280;30068;50.986;4.564;2023-02-17T12:56:03;102223.09;;;17.93;58.13
44349;BME280;30068;50.986;4.564;2023-02-17T12:58:32;102217.56;;;17.94;58.24
44349;BME280;30068;50.986;4.564;2023-02-17T13:03:23;102215.28;;;17.99;57.98
44349;BME280;30068;50.986;4.564;2023-02-17T13:05:57;102215.84;;;18.03;58.02
44349;BME280;30068;50.986;4.564;2023-02-17T13:08:33;102209.47;;;18.13;57.79
44349;BME280;30068;50.986;4.564;2023-02-17T13:11:02;102216.31;;;18.08;58.19
44349;BME280;30068;50.986;4.564;2023-02-17T13:13:29;102206.50;;;18.07;58.19
44349;BME280;30068;50.986;4.564;2023-02-17T13:18:50;102214.72;;;17.96;58.26
44349;BME280;30068;50.986;4.564;2023-02-17T13:24:02;102219.25;;;17.95;58.35
44349;BME280;30068;50.986;4.564;2023-02-17T13:26:31;102234.34;;;17.98;58.20
44349;BME280;30068;50.986;4.564;2023-02-17T13:31:51;102215.00;;;17.93;58.35
44349;BME280;30068;50.986;4.564;2023-02-17T13:34:57;102213.56;;;17.89;58.32
44349;BME280;30068;50.986;4.564;2023-02-17T13:42:41;102202.91;;;17.77;58.55
44349;BME280;30068;50.986;4.564;2023-02-17T13:47:48;102221.66;;;17.79;58.44
44349;BME280;30068;50.986;4.564;2023-02-17T13:52:55;102233.72;;;17.75;58.80
44349;BME280;30068;50.986;4.564;2023-02-17T13:55:20;102234.28;;;17.69;58.83
44349;BME280;30068;50.986;4.564;2023-02-17T13:57:50;102233.16;;;17.71;58.88
44349;BME280;30068;50.986;4.564;2023-02-17T14:00:21;102237.25;;;17.66;59.08
44349;BME280;30068;50.986;4.564;2023-02-17T14:02:48;102238.25;;;17.65;58.86
44349;BME280;30068;50.986;4.564;2023-02-17T14:05:36;102237.09;;;17.67;59.08
44349;BME280;30068;50.986;4.564;2023-02-17T14:08:03;102231.00;;;17.65;59.15
44349;BME280;30068;50.986;4.564;2023-02-17T14:10:29;102233.75;;;17.54;59.29
44349;BME280;30068;50.986;4.564;2023-02-17T14:12:54;102228.91;;;17.48;59.47
44349;BME280;30068;50.986;4.564;2023-02-17T14:15:21;102233.75;;;17.54;59.23
44349;BME280;30068;50.986;4.564;2023-02-17T14:17:47;102239.03;;;17.46;59.53